Time;durP1;ratioP1;P1;durP2;ratioP2;P2;SDS_P1;SDS_P2;PMS_P1;PMS_P2;Temp;Humidity;BMP_temperature;BMP_pressure;BME280_temperature;BME280_humidity;BME280_pressure;Samples;Min_cycle;Max_cycle;Signal;HPM_P1;HPM_P2
2022/03/06 00:00:32;;;;;;;14.13;10.20;;;;;;;;;;5023593;28;20436;-79
2022/03/06 00:02:58;;;;;;;12.90;10.32;;;;;;;;;;5025669;28;20425;-78
2022/03/06 00:05:25;;;;;;;12.98;10.30;;;;;;;;;;5023615;28;20927;-79
2022/03/06 00:07:51;;;;;;;13.15;10.10;;;;;;;;;;5021509;28;20447;-79
2022/03/06 00:10:19;;;;;;;10.65;9.55;;;;;;;;;;5021275;28;20421;-78
2022/03/06 00:12:45;;;;;;;11.10;9.63;;;;;;;;;;5020559;28;20931;-79
2022/03/06 00:15:11;;;;;;;14.40;10.30;;;;;;;;;;5023124;28;20426;-79
2022/03/06 00:17:38;;;;;;;11.88;10.02;;;;;;;;;;5020173;28;20423;-78
2022/03/06 00:20:08;;;;;;;11.65;10.10;;;;;;;;;;5020611;28;20962;-78
2022/03/06 00:22:34;;;;;;;13.98;10.43;;;;;;;;;;5021357;28;20491;-79
2022/03/06 00:25:00;;;;;;;12.80;9.50;;;;;;;;;;5020819;28;20911;-79
2022/03/06 00:27:28;;;;;;;12.77;10.80;;;;;;;;;;5022285;28;20985;-79
2022/03/06 00:29:54;;;;;;;11.53;10.33;;;;;;;;;;5020918;28;20423;-79
2022/03/06 00:32:20;;;;;;;20.27;10.20;;;;;;;;;;5022685;28;20440;-79
2022/03/06 00:34:48;;;;;;;10.93;9.55;;;;;;;;;;5023195;28;20415;-79
2022/03/06 00:37:14;;;;;;;11.67;9.60;;;;;;;;;;5022796;28;20463;-78
2022/03/06 00:39:40;;;;;;;12.80;10.10;;;;;;;;;;5069605;22;20518;-84
2022/03/06 00:42:07;;;;;;;14.15;10.40;;;;;;;;;;5035455;28;20807;-82
2022/03/06 00:44:35;;;;;;;12.30;9.90;;;;;;;;;;5037723;28;20423;-83
2022/03/06 00:47:01;;;;;;;11.93;9.98;;;;;;;;;;5038124;28;20450;-82
2022/03/06 00:49:27;;;;;;;15.82;10.82;;;;;;;;;;5037860;28;20419;-85
2022/03/06 00:51:54;;;;;;;13.05;9.85;;;;;;;;;;5038519;28;20429;-82
2022/03/06 00:54:20;;;;;;;12.50;9.90;;;;;;;;;;5035603;28;20434;-82
2022/03/06 00:56:46;;;;;;;14.13;10.32;;;;;;;;;;5037437;28;20607;-84
2022/03/06 00:59:13;;;;;;;10.63;9.10;;;;;;;;;;5034107;28;20483;-83
2022/03/06 01:01:41;;;;;;;9.75;8.75;;;;;;;;;;5037619;28;20414;-83
2022/03/06 01:04:07;;;;;;;11.90;9.50;;;;;;;;;;5037287;28;20429;-83
2022/03/06 01:06:34;;;;;;;12.38;9.45;;;;;;;;;;5037793;28;20414;-82
2022/03/06 01:09:00;;;;;;;13.18;9.75;;;;;;;;;;5033333;28;20433;-84
2022/03/06 01:11:26;;;;;;;11.95;9.32;;;;;;;;;;5036904;28;20429;-84
2022/03/06 01:13:52;;;;;;;11.50;8.70;;;;;;;;;;5036805;28;20487;-84
2022/03/06 01:16:19;;;;;;;13.38;9.52;;;;;;;;;;5036317;28;20438;-82
2022/03/06 01:18:46;;;;;;;11.75;9.55;;;;;;;;;;5036972;28;20426;-81
2022/03/06 01:21:12;;;;;;;11.38;9.80;;;;;;;;;;5037392;28;20434;-83
2022/03/06 01:23:39;;;;;;;11.68;9.00;;;;;;;;;;5039412;28;20428;-82
2022/03/06 01:26:05;;;;;;;11.50;9.20;;;;;;;;;;5035387;28;20497;-81
2022/03/06 01:28:32;;;;;;;11.77;9.45;;;;;;;;;;5036251;28;20783;-81
2022/03/06 01:30:58;;;;;;;12.07;9.57;;;;;;;;;;5035906;28;20421;-82
2022/03/06 01:33:24;;;;;;;12.75;8.85;;;;;;;;;;5037259;28;20438;-82
2022/03/06 01:35:52;;;;;;;11.90;8.93;;;;;;;;;;5034805;28;20407;-84
2022/03/06 01:38:19;;;;;;;11.40;9.43;;;;;;;;;;5036034;28;20896;-83
2022/03/06 01:40:45;;;;;;;14.02;11.05;;;;;;;;;;5036271;28;20425;-83
2022/03/06 01:43:12;;;;;;;10.32;9.20;;;;;;;;;;5035685;28;21231;-82
2022/03/06 01:45:38;;;;;;;12.10;9.35;;;;;;;;;;5036889;28;20437;-82
2022/03/06 01:48:08;;;;;;;13.63;9.85;;;;;;;;;;5035516;28;21368;-83
2022/03/06 01:50:35;;;;;;;13.65;9.35;;;;;;;;;;5037471;28;20896;-83
2022/03/06 01:53:04;;;;;;;12.48;8.93;;;;;;;;;;5037824;28;20433;-83
2022/03/06 01:55:30;;;;;;;12.70;9.30;;;;;;;;;;5040901;28;20498;-83
2022/03/06 01:57:58;;;;;;;14.57;9.82;;;;;;;;;;5039439;28;20465;-83
2022/03/06 02:00:25;;;;;;;11.45;8.77;;;;;;;;;;5042190;28;20437;-82
2022/03/06 02:02:52;;;;;;;12.05;8.48;;;;;;;;;;5040764;28;20423;-82
2022/03/06 02:05:18;;;;;;;11.50;9.10;;;;;;;;;;5040852;28;20993;-83
2022/03/06 02:07:44;;;;;;;10.63;9.40;;;;;;;;;;5041043;28;20427;-81
2022/03/06 02:10:14;;;;;;;14.25;9.50;;;;;;;;;;5041137;28;20427;-83
2022/03/06 02:12:40;;;;;;;12.45;8.80;;;;;;;;;;5040250;28;20879;-81
2022/03/06 02:15:08;;;;;;;10.37;8.30;;;;;;;;;;5041898;28;20533;-82
2022/03/06 02:17:37;;;;;;;10.80;8.65;;;;;;;;;;5042816;28;20824;-84
2022/03/06 02:20:04;;;;;;;12.40;9.20;;;;;;;;;;5038919;28;20459;-86
2022/03/06 02:22:33;;;;;;;10.00;8.10;;;;;;;;;;5039009;28;20440;-83
2022/03/06 02:25:01;;;;;;;10.23;8.38;;;;;;;;;;5042892;28;20455;-83
2022/03/06 02:27:27;;;;;;;10.40;8.48;;;;;;;;;;5040241;28;20425;-81
2022/03/06 02:29:53;;;;;;;13.27;9.07;;;;;;;;;;5043740;28;20929;-85
2022/03/06 02:32:21;;;;;;;12.15;8.60;;;;;;;;;;5041729;28;21189;-84
2022/03/06 02:34:48;;;;;;;11.32;7.90;;;;;;;;;;5039890;28;20474;-84
2022/03/06 02:37:16;;;;;;;8.88;7.68;;;;;;;;;;5040503;28;20458;-85
2022/03/06 02:39:44;;;;;;;11.98;7.65;;;;;;;;;;5038746;28;20840;-84
2022/03/06 02:42:10;;;;;;;9.40;7.80;;;;;;;;;;5039993;28;20849;-85
2022/03/06 02:44:37;;;;;;;9.25;7.80;;;;;;;;;;5039727;28;20421;-83
2022/03/06 02:47:04;;;;;;;9.40;7.83;;;;;;;;;;5038872;28;20416;-82
2022/03/06 02:49:30;;;;;;;10.47;7.17;;;;;;;;;;5039655;28;20421;-83
2022/03/06 02:51:56;;;;;;;12.60;7.65;;;;;;;;;;5040755;28;20452;-84
2022/03/06 02:54:22;;;;;;;9.85;7.10;;;;;;;;;;5038893;28;20446;-83
2022/03/06 02:56:51;;;;;;;8.30;7.50;;;;;;;;;;5038690;28;20423;-83
2022/03/06 02:59:17;;;;;;;10.50;6.97;;;;;;;;;;5041938;28;20427;-82
2022/03/06 03:01:43;;;;;;;10.10;7.22;;;;;;;;;;5040510;28;20431;-85
2022/03/06 03:04:10;;;;;;;8.93;6.53;;;;;;;;;;5040054;28;20421;-83
2022/03/06 03:06:36;;;;;;;9.05;7.38;;;;;;;;;;5040655;28;22323;-82
2022/03/06 03:09:04;;;;;;;8.70;6.60;;;;;;;;;;5041587;28;20498;-82
2022/03/06 03:11:31;;;;;;;10.30;7.25;;;;;;;;;;5041011;28;20427;-83
2022/03/06 03:13:58;;;;;;;9.20;6.63;;;;;;;;;;5040770;28;20444;-82
2022/03/06 03:16:25;;;;;;;9.83;7.00;;;;;;;;;;5039982;28;20427;-81
2022/03/06 03:18:51;;;;;;;7.55;6.60;;;;;;;;;;5042503;28;20423;-83
2022/03/06 03:21:17;;;;;;;7.80;7.00;;;;;;;;;;5041485;28;20415;-82
2022/03/06 03:23:44;;;;;;;7.47;6.63;;;;;;;;;;5042296;28;20409;-85
2022/03/06 03:26:10;;;;;;;10.43;7.22;;;;;;;;;;5043124;28;20415;-83
2022/03/06 03:28:36;;;;;;;8.95;6.63;;;;;;;;;;5041116;28;20425;-83
2022/03/06 03:31:04;;;;;;;7.70;6.17;;;;;;;;;;5038898;28;20507;-85
2022/03/06 03:33:30;;;;;;;8.30;6.97;;;;;;;;;;5042917;28;20426;-85
2022/03/06 03:35:57;;;;;;;10.45;6.80;;;;;;;;;;5039925;28;20414;-85
2022/03/06 03:38:23;;;;;;;7.97;6.10;;;;;;;;;;5041036;28;20869;-85
2022/03/06 03:40:49;;;;;;;8.40;6.32;;;;;;;;;;5043251;28;20405;-84
2022/03/06 03:43:16;;;;;;;9.53;6.57;;;;;;;;;;5044722;28;20441;-83
2022/03/06 03:45:42;;;;;;;8.40;6.10;;;;;;;;;;5040216;28;20456;-83
2022/03/06 03:48:09;;;;;;;9.10;6.28;;;;;;;;;;5042567;28;20421;-82
2022/03/06 03:50:36;;;;;;;7.90;6.70;;;;;;;;;;5039690;28;20411;-85
2022/03/06 03:53:02;;;;;;;8.93;6.05;;;;;;;;;;5043375;28;20922;-84
2022/03/06 03:55:28;;;;;;;8.68;5.97;;;;;;;;;;5042861;28;20434;-84
2022/03/06 03:57:55;;;;;;;9.27;6.00;;;;;;;;;;5040011;28;20485;-83
2022/03/06 04:00:21;;;;;;;8.20;5.60;;;;;;;;;;5043450;28;20483;-85
2022/03/06 04:02:47;;;;;;;8.00;5.70;;;;;;;;;;5038589;28;20826;-85
2022/03/06 04:05:15;;;;;;;7.13;5.63;;;;;;;;;;5040436;28;20434;-84
2022/03/06 04:07:41;;;;;;;10.00;5.80;;;;;;;;;;5043282;28;20430;-82
2022/03/06 04:10:07;;;;;;;9.15;6.40;;;;;;;;;;5044034;28;20469;-84
2022/03/06 04:12:34;;;;;;;8.10;5.55;;;;;;;;;;5040416;28;20417;-85
2022/03/06 04:15:00;;;;;;;8.30;6.10;;;;;;;;;;5042957;28;20434;-84
2022/03/06 04:17:26;;;;;;;6.45;5.82;;;;;;;;;;5044943;28;20440;-84
2022/03/06 04:19:52;;;;;;;6.80;5.80;;;;;;;;;;5033942;28;20433;-83
2022/03/06 04:22:20;;;;;;;7.68;6.10;;;;;;;;;;5038790;28;20422;-83
2022/03/06 04:24:46;;;;;;;9.23;5.95;;;;;;;;;;5037938;28;20474;-83
2022/03/06 04:27:12;;;;;;;10.35;6.20;;;;;;;;;;5038198;28;20418;-83
2022/03/06 04:29:39;;;;;;;6.15;5.30;;;;;;;;;;5034751;28;20827;-84
2022/03/06 04:32:06;;;;;;;10.70;6.20;;;;;;;;;;5037574;28;20793;-84
2022/03/06 04:34:32;;;;;;;8.52;5.95;;;;;;;;;;5037966;28;20437;-83
2022/03/06 04:36:58;;;;;;;9.38;5.72;;;;;;;;;;5036510;28;20419;-82
2022/03/06 04:39:26;;;;;;;8.15;5.53;;;;;;;;;;5036159;28;20467;-84
2022/03/06 04:41:52;;;;;;;6.68;5.65;;;;;;;;;;5037859;28;20934;-82
2022/03/06 04:44:18;;;;;;;7.15;5.15;;;;;;;;;;5037639;28;20939;-81
2022/03/06 04:46:46;;;;;;;11.85;5.32;;;;;;;;;;5038562;28;20416;-82
2022/03/06 04:49:12;;;;;;;7.67;4.90;;;;;;;;;;5035427;28;20438;-83
2022/03/06 04:51:39;;;;;;;5.90;4.90;;;;;;;;;;5039247;28;20437;-82
2022/03/06 04:54:05;;;;;;;8.25;5.00;;;;;;;;;;5035425;28;20427;-84
2022/03/06 04:56:33;;;;;;;7.82;5.10;;;;;;;;;;5039129;28;20449;-82
2022/03/06 04:58:59;;;;;;;6.70;4.50;;;;;;;;;;5037873;28;20427;-84
2022/03/06 05:01:26;;;;;;;6.97;4.85;;;;;;;;;;5036216;28;20846;-85
2022/03/06 05:03:52;;;;;;;6.73;4.90;;;;;;;;;;5034903;28;20440;-84
2022/03/06 05:06:19;;;;;;;8.05;4.90;;;;;;;;;;5035697;28;20438;-83
2022/03/06 05:08:45;;;;;;;6.47;4.88;;;;;;;;;;5032911;28;20433;-84
2022/03/06 05:11:11;;;;;;;7.35;5.10;;;;;;;;;;5037540;28;20485;-84
2022/03/06 05:13:39;;;;;;;8.10;5.43;;;;;;;;;;5032666;28;20548;-84
2022/03/06 05:16:05;;;;;;;9.20;5.15;;;;;;;;;;5035819;28;20426;-85
2022/03/06 05:18:31;;;;;;;6.88;4.70;;;;;;;;;;5036004;28;20954;-84
2022/03/06 05:20:58;;;;;;;5.57;4.60;;;;;;;;;;5036389;28;20413;-84
2022/03/06 05:23:24;;;;;;;8.90;4.70;;;;;;;;;;5037285;28;20507;-84
2022/03/06 05:25:52;;;;;;;7.95;4.90;;;;;;;;;;5037965;28;20407;-84
2022/03/06 05:28:18;;;;;;;5.47;4.47;;;;;;;;;;5033791;28;20932;-82
2022/03/06 05:30:46;;;;;;;6.07;4.30;;;;;;;;;;5037448;28;20430;-82
2022/03/06 05:33:12;;;;;;;6.15;4.95;;;;;;;;;;5039204;28;20429;-82
2022/03/06 05:35:38;;;;;;;7.60;4.80;;;;;;;;;;5037054;28;20458;-84
2022/03/06 05:38:04;;;;;;;6.00;4.78;;;;;;;;;;5036762;28;20904;-82
2022/03/06 05:40:31;;;;;;;6.35;4.53;;;;;;;;;;5036320;28;20435;-82
2022/03/06 05:42:57;;;;;;;6.88;4.28;;;;;;;;;;5037037;28;20426;-83
2022/03/06 05:45:23;;;;;;;4.90;4.30;;;;;;;;;;5036888;28;20429;-83
2022/03/06 05:47:51;;;;;;;7.30;4.70;;;;;;;;;;5037665;28;20485;-83
2022/03/06 05:50:17;;;;;;;6.78;4.80;;;;;;;;;;5038016;28;20410;-81
2022/03/06 05:52:44;;;;;;;5.70;4.40;;;;;;;;;;5038649;28;20413;-82
2022/03/06 05:55:10;;;;;;;6.15;4.60;;;;;;;;;;5039006;28;20426;-82
2022/03/06 05:57:36;;;;;;;6.35;4.50;;;;;;;;;;5036321;28;20442;-82
2022/03/06 06:00:08;;;;;;;6.68;4.43;;;;;;;;;;5035645;28;20418;-83
2022/03/06 06:02:34;;;;;;;5.70;4.53;;;;;;;;;;5034818;28;20429;-83
2022/03/06 06:05:02;;;;;;;7.28;4.75;;;;;;;;;;5037718;28;20455;-82
2022/03/06 06:07:28;;;;;;;6.93;4.70;;;;;;;;;;5037886;28;20848;-83
2022/03/06 06:09:54;;;;;;;7.18;4.30;;;;;;;;;;5037351;28;20921;-84
2022/03/06 06:12:20;;;;;;;6.38;4.22;;;;;;;;;;5035613;28;20860;-83
2022/03/06 06:14:47;;;;;;;7.38;4.30;;;;;;;;;;5035790;28;20431;-83
2022/03/06 06:17:13;;;;;;;4.30;3.90;;;;;;;;;;5035979;28;20941;-84
2022/03/06 06:19:39;;;;;;;7.90;4.28;;;;;;;;;;5038785;28;20417;-82
2022/03/06 06:22:07;;;;;;;8.30;3.73;;;;;;;;;;5033269;28;20501;-84
2022/03/06 06:24:33;;;;;;;6.57;4.30;;;;;;;;;;5035754;28;20467;-83
2022/03/06 06:27:00;;;;;;;5.35;3.80;;;;;;;;;;5037077;28;20911;-82
2022/03/06 06:29:27;;;;;;;6.03;4.10;;;;;;;;;;5034071;28;20891;-82
2022/03/06 06:31:53;;;;;;;6.28;4.85;;;;;;;;;;5038606;28;20427;-83
2022/03/06 06:34:20;;;;;;;5.68;3.90;;;;;;;;;;5035263;28;20431;-83
2022/03/06 06:36:47;;;;;;;6.72;4.38;;;;;;;;;;5038692;28;20469;-83
2022/03/06 06:39:14;;;;;;;8.13;4.60;;;;;;;;;;5035170;28;20424;-84
2022/03/06 06:41:41;;;;;;;6.70;4.28;;;;;;;;;;5048436;23;20464;-85
2022/03/06 06:44:08;;;;;;;6.80;4.15;;;;;;;;;;5031833;28;20793;-85
2022/03/06 06:46:34;;;;;;;5.75;4.20;;;;;;;;;;5030278;28;20423;-85
2022/03/06 06:49:03;;;;;;;5.13;4.10;;;;;;;;;;5027877;28;20494;-84
2022/03/06 06:51:29;;;;;;;6.57;4.15;;;;;;;;;;5012987;28;20440;-85
2022/03/06 06:53:56;;;;;;;6.70;4.50;;;;;;;;;;5009016;28;20492;-85
2022/03/06 06:56:23;;;;;;;6.40;4.43;;;;;;;;;;5011513;28;20525;-85
2022/03/06 06:58:50;;;;;;;6.85;4.88;;;;;;;;;;5010523;28;20909;-85
2022/03/06 07:01:16;;;;;;;5.63;4.35;;;;;;;;;;5013789;28;20424;-85
2022/03/06 07:03:43;;;;;;;5.93;5.00;;;;;;;;;;5014400;28;20426;-85
2022/03/06 07:06:09;;;;;;;5.20;4.70;;;;;;;;;;5011763;28;20428;-85
2022/03/06 07:08:35;;;;;;;6.43;4.80;;;;;;;;;;5011188;28;20471;-85
2022/03/06 07:11:01;;;;;;;7.18;5.30;;;;;;;;;;5014300;28;20429;-85
2022/03/06 07:13:29;;;;;;;9.25;5.57;;;;;;;;;;5014573;28;20810;-85
2022/03/06 07:15:55;;;;;;;6.95;5.05;;;;;;;;;;5012750;28;20436;-85
2022/03/06 07:18:22;;;;;;;6.30;4.40;;;;;;;;;;5015177;28;20883;-85
2022/03/06 07:20:48;;;;;;;7.00;5.17;;;;;;;;;;5014110;28;20895;-85
2022/03/06 07:23:14;;;;;;;6.82;4.78;;;;;;;;;;5012744;28;20499;-85
2022/03/06 07:25:41;;;;;;;5.82;4.85;;;;;;;;;;5010515;28;20494;-85
2022/03/06 07:28:07;;;;;;;7.55;5.30;;;;;;;;;;5010524;28;20889;-85
2022/03/06 07:30:35;;;;;;;6.85;4.80;;;;;;;;;;5012954;28;20410;-86
2022/03/06 07:33:02;;;;;;;7.03;5.30;;;;;;;;;;5011893;28;20428;-89
2022/03/06 07:35:28;;;;;;;5.80;5.30;;;;;;;;;;5012299;28;20922;-83
2022/03/06 07:37:55;;;;;;;6.38;5.30;;;;;;;;;;5013466;28;20433;-83
2022/03/06 07:40:22;;;;;;;6.00;5.20;;;;;;;;;;5012632;28;20558;-82
2022/03/06 07:42:49;;;;;;;7.40;5.83;;;;;;;;;;5014594;28;20943;-82
2022/03/06 07:45:15;;;;;;;8.05;5.55;;;;;;;;;;5015911;28;20818;-82
2022/03/06 07:47:43;;;;;;;10.50;6.30;;;;;;;;;;5014703;28;20490;-83
2022/03/06 07:50:12;;;;;;;5.75;5.20;;;;;;;;;;5014305;28;20486;-82
2022/03/06 07:52:39;;;;;;;8.43;5.40;;;;;;;;;;5015231;28;20432;-82
2022/03/06 07:55:06;;;;;;;7.00;5.88;;;;;;;;;;5015392;28;21017;-82
2022/03/06 07:57:32;;;;;;;6.63;5.30;;;;;;;;;;5015622;28;20428;-82
2022/03/06 07:59:58;;;;;;;7.72;5.97;;;;;;;;;;5013550;28;20857;-83
2022/03/06 08:02:25;;;;;;;5.82;5.22;;;;;;;;;;5015889;28;20452;-83
2022/03/06 08:04:52;;;;;;;7.88;5.32;;;;;;;;;;5013620;28;20435;-83
2022/03/06 08:07:18;;;;;;;6.88;5.60;;;;;;;;;;5016021;28;20434;-82
2022/03/06 08:09:45;;;;;;;6.50;5.75;;;;;;;;;;5016190;28;20416;-81
2022/03/06 08:12:11;;;;;;;7.47;5.50;;;;;;;;;;5012596;28;20424;-83
2022/03/06 08:14:37;;;;;;;6.75;5.20;;;;;;;;;;5005195;28;20462;-83
2022/03/06 08:17:04;;;;;;;6.60;5.93;;;;;;;;;;5004509;28;20433;-82
2022/03/06 08:19:30;;;;;;;6.00;5.50;;;;;;;;;;5010243;28;20424;-83
2022/03/06 08:21:58;;;;;;;6.55;5.70;;;;;;;;;;5010366;28;20479;-84
2022/03/06 08:24:25;;;;;;;5.43;4.93;;;;;;;;;;5012514;28;20775;-83
2022/03/06 08:26:51;;;;;;;8.35;5.70;;;;;;;;;;5014171;28;20786;-83
2022/03/06 08:29:17;;;;;;;7.18;5.55;;;;;;;;;;5008433;28;20428;-83
2022/03/06 08:31:44;;;;;;;5.80;4.90;;;;;;;;;;5010165;28;20466;-83
2022/03/06 08:34:10;;;;;;;5.90;5.30;;;;;;;;;;5001561;28;20443;-84
2022/03/06 08:36:37;;;;;;;6.32;5.10;;;;;;;;;;5009201;28;21049;-84
2022/03/06 08:39:05;;;;;;;6.68;4.85;;;;;;;;;;5008564;28;20518;-83
2022/03/06 08:41:32;;;;;;;5.78;4.57;;;;;;;;;;5007511;28;20927;-84
2022/03/06 08:43:58;;;;;;;5.72;5.00;;;;;;;;;;5011025;28;20432;-83
2022/03/06 08:46:24;;;;;;;6.80;5.83;;;;;;;;;;5008217;28;20544;-84
2022/03/06 08:48:50;;;;;;;6.10;4.72;;;;;;;;;;5009714;28;20478;-83
2022/03/06 08:51:17;;;;;;;7.33;5.00;;;;;;;;;;5008135;28;20420;-83
2022/03/06 08:53:43;;;;;;;5.88;4.70;;;;;;;;;;5008724;28;20486;-83
2022/03/06 08:56:11;;;;;;;6.43;5.25;;;;;;;;;;5009277;28;20960;-84
2022/03/06 08:58:37;;;;;;;6.00;5.20;;;;;;;;;;5009599;28;20428;-82
2022/03/06 09:01:03;;;;;;;6.10;5.50;;;;;;;;;;5002990;28;20428;-81
2022/03/06 09:03:30;;;;;;;5.72;5.10;;;;;;;;;;5011977;28;20428;-80
2022/03/06 09:05:56;;;;;;;6.07;5.40;;;;;;;;;;5009307;28;20776;-81
2022/03/06 09:08:22;;;;;;;7.90;4.80;;;;;;;;;;5009091;28;20456;-80
2022/03/06 09:10:49;;;;;;;6.90;5.30;;;;;;;;;;5010458;28;20492;-84
2022/03/06 09:13:16;;;;;;;7.45;5.10;;;;;;;;;;5009866;28;20512;-82
2022/03/06 09:15:43;;;;;;;9.38;5.18;;;;;;;;;;5007420;28;20486;-80
2022/03/06 09:18:09;;;;;;;5.78;4.97;;;;;;;;;;5007010;28;20510;-81
2022/03/06 09:20:35;;;;;;;6.05;5.20;;;;;;;;;;5009843;28;20515;-82
2022/03/06 09:23:03;;;;;;;9.98;5.50;;;;;;;;;;5014146;28;20528;-81
2022/03/06 09:25:32;;;;;;;6.63;5.33;;;;;;;;;;5009412;28;20431;-82
2022/03/06 09:27:59;;;;;;;6.43;5.18;;;;;;;;;;5013640;28;20968;-80
2022/03/06 09:30:27;;;;;;;5.82;5.20;;;;;;;;;;5008774;28;20435;-82
2022/03/06 09:32:53;;;;;;;6.35;5.45;;;;;;;;;;5012765;28;20836;-81
2022/03/06 09:35:19;;;;;;;6.95;5.88;;;;;;;;;;5010044;28;20438;-82
2022/03/06 09:37:46;;;;;;;7.03;5.40;;;;;;;;;;5011793;28;20530;-81
2022/03/06 09:40:12;;;;;;;6.25;5.65;;;;;;;;;;5011294;28;20452;-82
2022/03/06 09:42:39;;;;;;;7.25;5.50;;;;;;;;;;5009518;28;20437;-82
2022/03/06 09:45:08;;;;;;;5.80;5.20;;;;;;;;;;5002145;28;20442;-82
2022/03/06 09:47:35;;;;;;;8.30;5.70;;;;;;;;;;5011632;28;20642;-82
2022/03/06 09:50:02;;;;;;;6.35;5.68;;;;;;;;;;5012340;28;20441;-82
2022/03/06 09:52:28;;;;;;;6.90;5.60;;;;;;;;;;5008742;28;20424;-82
2022/03/06 09:54:55;;;;;;;7.72;5.88;;;;;;;;;;5011116;28;20523;-84
2022/03/06 09:57:21;;;;;;;7.25;5.65;;;;;;;;;;5013657;28;20830;-84
2022/03/06 09:59:47;;;;;;;5.80;5.20;;;;;;;;;;5012747;28;20432;-83
2022/03/06 10:02:14;;;;;;;8.82;5.85;;;;;;;;;;5012976;28;20421;-83
2022/03/06 10:04:42;;;;;;;7.13;5.60;;;;;;;;;;5012416;28;20434;-82
2022/03/06 10:07:09;;;;;;;5.82;5.30;;;;;;;;;;5008852;28;20438;-83
2022/03/06 10:09:43;;;;;;;7.50;5.80;;;;;;;;;;5012347;28;20862;-84
2022/03/06 10:12:17;;;;;;;6.57;5.57;;;;;;;;;;5015260;28;20409;-83
2022/03/06 10:14:44;;;;;;;6.50;5.18;;;;;;;;;;5016691;28;20425;-83
2022/03/06 10:17:11;;;;;;;7.65;6.20;;;;;;;;;;5019214;28;20420;-85
2022/03/06 10:19:52;;;;;;;6.57;5.35;;;;;;;;;;5017097;28;20430;-82
2022/03/06 10:22:19;;;;;;;8.00;5.80;;;;;;;;;;5014578;28;20926;-83
2022/03/06 10:24:49;;;;;;;7.95;5.75;;;;;;;;;;5014751;28;20418;-82
2022/03/06 10:27:15;;;;;;;7.00;6.18;;;;;;;;;;5018573;28;20487;-84
2022/03/06 10:29:41;;;;;;;6.85;5.50;;;;;;;;;;5018165;28;20455;-85
2022/03/06 10:32:08;;;;;;;9.10;6.13;;;;;;;;;;5018222;28;20927;-85
2022/03/06 10:34:35;;;;;;;6.15;5.55;;;;;;;;;;5020113;28;20443;-85
2022/03/06 10:37:03;;;;;;;5.68;5.10;;;;;;;;;;5015889;28;20957;-85
2022/03/06 10:39:30;;;;;;;5.90;5.40;;;;;;;;;;5018013;28;20838;-85
2022/03/06 10:41:57;;;;;;;6.45;5.15;;;;;;;;;;5019689;28;20428;-83
2022/03/06 10:44:41;;;;;;;5.38;4.88;;;;;;;;;;5019219;28;20423;-83
2022/03/06 10:47:08;;;;;;;6.07;5.03;;;;;;;;;;5015198;28;20422;-85
2022/03/06 10:49:34;;;;;;;5.18;4.68;;;;;;;;;;5019464;28;20428;-86
2022/03/06 10:52:14;;;;;;;7.22;5.45;;;;;;;;;;5014432;28;20428;-83
2022/03/06 10:54:50;;;;;;;5.90;5.30;;;;;;;;;;5017536;28;20783;-85
2022/03/06 10:57:17;;;;;;;5.93;5.37;;;;;;;;;;5018627;28;20417;-85
2022/03/06 10:59:44;;;;;;;5.97;5.40;;;;;;;;;;5016973;28;20475;-83
2022/03/06 11:02:12;;;;;;;6.22;5.63;;;;;;;;;;5017652;28;20424;-83
2022/03/06 11:04:38;;;;;;;7.43;5.65;;;;;;;;;;5018947;28;20424;-83
2022/03/06 11:07:05;;;;;;;6.05;5.45;;;;;;;;;;5015969;28;20467;-85
2022/03/06 11:09:33;;;;;;;5.45;4.95;;;;;;;;;;5016258;28;20471;-83
2022/03/06 11:11:59;;;;;;;5.70;5.15;;;;;;;;;;5015854;28;20921;-83
2022/03/06 11:14:26;;;;;;;6.55;5.38;;;;;;;;;;5019238;28;20825;-85
2022/03/06 11:16:52;;;;;;;5.95;5.30;;;;;;;;;;5015185;28;20415;-83
2022/03/06 11:19:19;;;;;;;7.03;5.40;;;;;;;;;;5018823;28;20432;-83
2022/03/06 11:21:46;;;;;;;5.40;4.90;;;;;;;;;;5016509;28;20478;-83
2022/03/06 11:24:14;;;;;;;8.40;5.83;;;;;;;;;;5018194;28;20487;-84
2022/03/06 11:26:58;;;;;;;6.90;5.22;;;;;;;;;;5016283;28;20435;-84
2022/03/06 11:29:39;;;;;;;7.53;5.60;;;;;;;;;;5007903;28;20471;-83
2022/03/06 11:32:06;;;;;;;5.60;5.00;;;;;;;;;;5017278;28;20416;-83
2022/03/06 11:34:33;;;;;;;7.00;5.40;;;;;;;;;;5017575;28;20413;-84
2022/03/06 11:37:04;;;;;;;5.95;5.30;;;;;;;;;;5018628;28;20413;-85
2022/03/06 11:39:44;;;;;;;6.78;5.78;;;;;;;;;;5017453;28;20423;-83
2022/03/06 11:42:11;;;;;;;5.50;4.80;;;;;;;;;;5019410;28;20528;-84
2022/03/06 11:44:39;;;;;;;6.90;4.97;;;;;;;;;;5016913;28;20436;-83
2022/03/06 11:47:12;;;;;;;6.53;4.70;;;;;;;;;;5014478;28;20421;-86
2022/03/06 11:49:38;;;;;;;5.30;4.78;;;;;;;;;;5014654;28;20455;-83
2022/03/06 11:52:25;;;;;;;5.50;4.57;;;;;;;;;;5015536;28;20927;-86
2022/03/06 11:54:51;;;;;;;6.93;4.50;;;;;;;;;;5016777;28;20431;-82
2022/03/06 11:57:35;;;;;;;5.75;5.00;;;;;;;;;;5014690;28;20417;-85
2022/03/06 12:00:15;;;;;;;7.15;4.60;;;;;;;;;;5015332;28;20452;-84
2022/03/06 12:02:45;;;;;;;6.43;4.60;;;;;;;;;;5016476;28;20428;-83
2022/03/06 12:05:11;;;;;;;6.45;5.40;;;;;;;;;;5017611;28;20424;-83
2022/03/06 12:07:40;;;;;;;5.63;4.90;;;;;;;;;;5014695;28;20437;-86
2022/03/06 12:10:07;;;;;;;5.60;4.65;;;;;;;;;;5014883;28;20444;-85
2022/03/06 12:12:35;;;;;;;5.97;4.70;;;;;;;;;;5013639;28;20786;-84
2022/03/06 12:15:12;;;;;;;6.90;4.60;;;;;;;;;;5016606;28;20567;-85
2022/03/06 12:17:39;;;;;;;6.38;5.30;;;;;;;;;;5006049;28;20437;-83
2022/03/06 12:20:24;;;;;;;4.68;3.95;;;;;;;;;;5014340;28;20479;-86
2022/03/06 12:22:52;;;;;;;9.15;4.53;;;;;;;;;;5012583;28;20428;-86
2022/03/06 12:25:20;;;;;;;5.00;3.90;;;;;;;;;;5006915;28;20565;-85
2022/03/06 12:28:01;;;;;;;5.30;4.03;;;;;;;;;;5010602;28;20801;-84
2022/03/06 12:30:28;;;;;;;5.65;3.80;;;;;;;;;;5011267;28;20413;-83
2022/03/06 12:32:55;;;;;;;3.50;3.20;;;;;;;;;;5010222;28;20433;-83
2022/03/06 12:35:22;;;;;;;5.00;3.40;;;;;;;;;;5014923;28;20432;-83
2022/03/06 12:37:50;;;;;;;4.63;3.20;;;;;;;;;;5012486;28;20448;-83
2022/03/06 12:40:17;;;;;;;5.85;3.30;;;;;;;;;;5010896;28;20436;-85
2022/03/06 12:42:44;;;;;;;4.43;3.27;;;;;;;;;;5074520;23;20440;-82
2022/03/06 12:45:11;;;;;;;4.93;3.90;;;;;;;;;;5041041;28;20413;-81
2022/03/06 12:47:38;;;;;;;4.50;3.45;;;;;;;;;;5051499;28;20463;-84
2022/03/06 12:50:07;;;;;;;5.00;3.50;;;;;;;;;;5062357;28;20465;-84
2022/03/06 12:52:34;;;;;;;5.53;3.25;;;;;;;;;;5059681;28;21364;-83
2022/03/06 12:55:03;;;;;;;5.00;3.70;;;;;;;;;;5061657;28;20479;-82
2022/03/06 12:57:31;;;;;;;4.75;3.90;;;;;;;;;;5061443;28;20469;-81
2022/03/06 12:59:57;;;;;;;5.80;3.85;;;;;;;;;;5057880;28;20525;-83
2022/03/06 13:02:24;;;;;;;5.22;3.60;;;;;;;;;;5062849;28;20408;-82
2022/03/06 13:04:50;;;;;;;3.90;3.53;;;;;;;;;;5064727;28;20432;-82
2022/03/06 13:07:22;;;;;;;5.70;4.20;;;;;;;;;;5059590;28;20837;-83
2022/03/06 13:09:55;;;;;;;4.50;3.70;;;;;;;;;;5058849;28;20503;-81
2022/03/06 13:12:22;;;;;;;4.65;3.90;;;;;;;;;;5060549;28;20817;-82
2022/03/06 13:14:49;;;;;;;4.35;3.72;;;;;;;;;;5061224;28;20427;-82
2022/03/06 13:17:18;;;;;;;4.03;3.63;;;;;;;;;;5061126;28;20412;-83
2022/03/06 13:19:45;;;;;;;4.65;4.25;;;;;;;;;;5062115;28;20420;-84
2022/03/06 13:22:12;;;;;;;5.30;4.50;;;;;;;;;;5059779;28;20448;-83
2022/03/06 13:24:41;;;;;;;4.57;3.93;;;;;;;;;;5062049;28;20423;-84
2022/03/06 13:27:07;;;;;;;6.88;4.25;;;;;;;;;;5060547;28;20409;-81
2022/03/06 13:29:34;;;;;;;4.40;4.00;;;;;;;;;;5056329;28;20424;-82
2022/03/06 13:32:00;;;;;;;6.20;4.43;;;;;;;;;;5062300;28;20415;-81
2022/03/06 13:34:26;;;;;;;6.03;4.10;;;;;;;;;;5064282;28;20425;-82
2022/03/06 13:36:53;;;;;;;5.37;4.40;;;;;;;;;;5059415;28;20503;-82
2022/03/06 13:39:20;;;;;;;5.88;3.97;;;;;;;;;;5060102;28;20420;-82
2022/03/06 13:41:51;;;;;;;4.07;3.60;;;;;;;;;;5057744;28;20877;-81
2022/03/06 13:44:17;;;;;;;6.15;3.70;;;;;;;;;;5057418;28;20937;-82
2022/03/06 13:46:43;;;;;;;5.50;3.50;;;;;;;;;;5057092;28;20802;-81
2022/03/06 13:49:10;;;;;;;5.90;3.67;;;;;;;;;;5058717;28;20888;-81
2022/03/06 13:51:37;;;;;;;6.50;3.78;;;;;;;;;;5056734;28;20925;-82
2022/03/06 13:54:06;;;;;;;7.63;3.80;;;;;;;;;;5058607;28;20415;-82
2022/03/06 13:56:34;;;;;;;4.00;3.60;;;;;;;;;;5058725;28;20421;-82
2022/03/06 13:59:02;;;;;;;4.97;3.67;;;;;;;;;;5056447;28;20827;-83
2022/03/06 14:01:28;;;;;;;5.45;4.00;;;;;;;;;;5057562;28;20435;-83
2022/03/06 14:03:59;;;;;;;4.10;3.70;;;;;;;;;;5057210;28;20484;-82
2022/03/06 14:06:32;;;;;;;7.00;3.95;;;;;;;;;;5059551;28;20417;-82
2022/03/06 14:08:59;;;;;;;5.60;4.10;;;;;;;;;;5056719;28;20413;-82
2022/03/06 14:11:25;;;;;;;5.75;4.00;;;;;;;;;;5057615;28;20423;-82
2022/03/06 14:13:53;;;;;;;7.03;4.38;;;;;;;;;;5055560;28;21013;-82
2022/03/06 14:16:26;;;;;;;6.95;4.13;;;;;;;;;;5056413;28;20484;-81
2022/03/06 14:18:53;;;;;;;5.00;4.00;;;;;;;;;;5055009;28;20494;-82
2022/03/06 14:21:20;;;;;;;6.72;4.20;;;;;;;;;;5057239;28;20408;-82
2022/03/06 14:23:46;;;;;;;4.43;3.87;;;;;;;;;;5058782;28;20469;-82
2022/03/06 14:26:13;;;;;;;4.15;3.75;;;;;;;;;;5058336;28;20432;-82
2022/03/06 14:28:48;;;;;;;5.25;4.03;;;;;;;;;;5057003;28;20477;-82
2022/03/06 14:31:15;;;;;;;4.63;4.03;;;;;;;;;;5057059;28;20421;-83
2022/03/06 14:33:42;;;;;;;4.50;4.10;;;;;;;;;;5057497;28;20438;-81
2022/03/06 14:36:08;;;;;;;5.30;4.30;;;;;;;;;;5056564;28;20439;-82
2022/03/06 14:38:35;;;;;;;5.32;4.38;;;;;;;;;;5055344;28;20442;-81
2022/03/06 14:41:01;;;;;;;4.97;4.05;;;;;;;;;;5057931;28;20413;-83